Abanilla, Spain
Current Conditions -  °F | °C
As of 5:30 AM on Saturday 20 Dec 2014 (Local Time) from LEAL Reporting Station
Broken Clouds Broken Clouds  
Wind Chill: 55°   Ceiling: 1000
Heat Index: 55°   Visibility: 6mi
Dew Point: 54°   Wind: 2mph
Humidity: 94%   Direction: NA
Pressure: 30.39"   Gusts: NA
Location:  38.21°N, 1.04°W
Report Text: LEAL 200430Z VRB02KT 9999 BKN010 13/12 Q1029 NOSIG
Loading
Personal Weather Stations






























Interactive Weather Map New forecast layout! Learn more

10-Day Weather Forecast

Advertisements
Track Severe Weather on mobile